Terminal Aerodrome Forecast
Issued by NWS

Current Version | Previous Version | Text Only | Print | Product List | Glossary On
Versions: 1 2 3 4 5 6 7 8 9 10 11 12 13 14 15 16 17 18 19 20 21 22 23 24 25 26
000
FTUS42 KKEY 221852 AAA
TAFMTH
TAF AMD
KMTH 221852Z 2219/2318 19013G27KT P6SM VCSH SCT025 BKN050 OVC100
      TEMPO 2219/2221 3SM SHRA BKN025
     FM222100 32010KT P6SM SCT025 SCT050 SCT100=

USA.gov is the U.S. government's official web portal to all federal, state and local government web resources and services.